sensor_id;sensor_type;location;lat;lon;timestamp;P1;durP1;ratioP1;P2;durP2;ratioP2
75645;SDS011;64237;52.438;13.240;2023-07-31T00:00:55;4.10;;;1.60;;
75645;SDS011;64237;52.438;13.240;2023-07-31T00:03:21;4.63;;;1.77;;
75645;SDS011;64237;52.438;13.240;2023-07-31T00:05:46;2.57;;;1.47;;
75645;SDS011;64237;52.438;13.240;2023-07-31T00:08:11;4.63;;;1.67;;
75645;SDS011;64237;52.438;13.240;2023-07-31T00:10:36;3.60;;;1.40;;
75645;SDS011;64237;52.438;13.240;2023-07-31T00:13:02;5.13;;;1.97;;
75645;SDS011;64237;52.438;13.240;2023-07-31T00:15:27;4.63;;;1.65;;
75645;SDS011;64237;52.438;13.240;2023-07-31T00:17:52;4.82;;;1.75;;
75645;SDS011;64237;52.438;13.240;2023-07-31T00:20:18;5.50;;;2.08;;
75645;SDS011;64237;52.438;13.240;2023-07-31T00:22:43;4.47;;;1.83;;
75645;SDS011;64237;52.438;13.240;2023-07-31T00:25:08;6.03;;;1.83;;
75645;SDS011;64237;52.438;13.240;2023-07-31T00:27:34;2.20;;;1.43;;
75645;SDS011;64237;52.438;13.240;2023-07-31T00:29:59;5.93;;;1.77;;
75645;SDS011;64237;52.438;13.240;2023-07-31T00:32:24;5.20;;;2.13;;
75645;SDS011;64237;52.438;13.240;2023-07-31T00:34:50;3.30;;;1.73;;
75645;SDS011;64237;52.438;13.240;2023-07-31T00:37:15;5.63;;;1.73;;
75645;SDS011;64237;52.438;13.240;2023-07-31T00:39:40;4.18;;;1.88;;
75645;SDS011;64237;52.438;13.240;2023-07-31T00:42:06;4.10;;;2.10;;
75645;SDS011;64237;52.438;13.240;2023-07-31T00:44:32;2.90;;;1.73;;
75645;SDS011;64237;52.438;13.240;2023-07-31T00:46:57;5.55;;;1.85;;
75645;SDS011;64237;52.438;13.240;2023-07-31T00:49:24;6.78;;;1.95;;
75645;SDS011;64237;52.438;13.240;2023-07-31T00:51:49;7.43;;;2.20;;
75645;SDS011;64237;52.438;13.240;2023-07-31T00:54:15;5.85;;;2.30;;
75645;SDS011;64237;52.438;13.240;2023-07-31T00:56:40;5.90;;;2.10;;
75645;SDS011;64237;52.438;13.240;2023-07-31T01:01:35;5.40;;;2.22;;
75645;SDS011;64237;52.438;13.240;2023-07-31T01:04:00;5.88;;;2.10;;
75645;SDS011;64237;52.438;13.240;2023-07-31T01:06:30;7.72;;;2.38;;
75645;SDS011;64237;52.438;13.240;2023-07-31T01:09:02;6.10;;;2.22;;
75645;SDS011;64237;52.438;13.240;2023-07-31T01:11:42;6.10;;;2.13;;
75645;SDS011;64237;52.438;13.240;2023-07-31T01:14:17;4.55;;;2.17;;
75645;SDS011;64237;52.438;13.240;2023-07-31T01:16:42;7.43;;;2.10;;
75645;SDS011;64237;52.438;13.240;2023-07-31T01:19:07;4.40;;;2.10;;
75645;SDS011;64237;52.438;13.240;2023-07-31T01:24:06;5.77;;;2.30;;
75645;SDS011;64237;52.438;13.240;2023-07-31T01:26:47;6.40;;;2.08;;
75645;SDS011;64237;52.438;13.240;2023-07-31T01:32:03;5.07;;;2.58;;
75645;SDS011;64237;52.438;13.240;2023-07-31T01:34:31;5.88;;;2.25;;
75645;SDS011;64237;52.438;13.240;2023-07-31T01:36:57;3.55;;;1.85;;
75645;SDS011;64237;52.438;13.240;2023-07-31T01:39:26;6.40;;;2.35;;
75645;SDS011;64237;52.438;13.240;2023-07-31T01:41:51;5.70;;;2.10;;
75645;SDS011;64237;52.438;13.240;2023-07-31T01:44:16;5.47;;;2.13;;
75645;SDS011;64237;52.438;13.240;2023-07-31T01:46:42;5.13;;;2.27;;
75645;SDS011;64237;52.438;13.240;2023-07-31T01:49:07;7.00;;;2.30;;
75645;SDS011;64237;52.438;13.240;2023-07-31T01:51:32;5.45;;;2.35;;
75645;SDS011;64237;52.438;13.240;2023-07-31T01:53:59;7.55;;;2.60;;
75645;SDS011;64237;52.438;13.240;2023-07-31T01:56:25;7.30;;;2.42;;
75645;SDS011;64237;52.438;13.240;2023-07-31T01:58:50;4.70;;;2.20;;
75645;SDS011;64237;52.438;13.240;2023-07-31T02:01:15;5.90;;;2.60;;
75645;SDS011;64237;52.438;13.240;2023-07-31T02:03:41;7.50;;;2.37;;
75645;SDS011;64237;52.438;13.240;2023-07-31T02:06:07;5.72;;;2.30;;
75645;SDS011;64237;52.438;13.240;2023-07-31T02:08:32;7.95;;;2.58;;
75645;SDS011;64237;52.438;13.240;2023-07-31T02:10:57;5.13;;;2.22;;
75645;SDS011;64237;52.438;13.240;2023-07-31T02:13:23;6.15;;;2.28;;
75645;SDS011;64237;52.438;13.240;2023-07-31T02:15:48;9.73;;;2.38;;
75645;SDS011;64237;52.438;13.240;2023-07-31T02:18:13;6.23;;;2.60;;
75645;SDS011;64237;52.438;13.240;2023-07-31T02:20:39;7.83;;;2.80;;
75645;SDS011;64237;52.438;13.240;2023-07-31T02:23:04;7.20;;;3.10;;
75645;SDS011;64237;52.438;13.240;2023-07-31T02:25:29;6.40;;;2.78;;
75645;SDS011;64237;52.438;13.240;2023-07-31T02:27:55;8.52;;;3.25;;
75645;SDS011;64237;52.438;13.240;2023-07-31T02:30:20;5.82;;;2.47;;
75645;SDS011;64237;52.438;13.240;2023-07-31T02:32:46;6.30;;;2.60;;
75645;SDS011;64237;52.438;13.240;2023-07-31T02:35:11;8.07;;;3.03;;
75645;SDS011;64237;52.438;13.240;2023-07-31T02:37:40;5.68;;;2.20;;
75645;SDS011;64237;52.438;13.240;2023-07-31T02:40:07;7.10;;;2.75;;
75645;SDS011;64237;52.438;13.240;2023-07-31T02:42:32;6.78;;;2.70;;
75645;SDS011;64237;52.438;13.240;2023-07-31T02:44:58;7.03;;;2.80;;
75645;SDS011;64237;52.438;13.240;2023-07-31T02:47:23;8.65;;;2.60;;
75645;SDS011;64237;52.438;13.240;2023-07-31T02:49:48;5.68;;;2.53;;
75645;SDS011;64237;52.438;13.240;2023-07-31T02:52:14;7.23;;;2.77;;
75645;SDS011;64237;52.438;13.240;2023-07-31T02:54:39;6.83;;;2.93;;
75645;SDS011;64237;52.438;13.240;2023-07-31T02:57:04;8.30;;;3.20;;
75645;SDS011;64237;52.438;13.240;2023-07-31T02:59:30;7.47;;;3.10;;
75645;SDS011;64237;52.438;13.240;2023-07-31T03:01:55;7.95;;;3.25;;
75645;SDS011;64237;52.438;13.240;2023-07-31T03:04:21;8.45;;;3.03;;
75645;SDS011;64237;52.438;13.240;2023-07-31T03:06:46;8.17;;;3.00;;
75645;SDS011;64237;52.438;13.240;2023-07-31T03:09:11;5.95;;;2.90;;
75645;SDS011;64237;52.438;13.240;2023-07-31T03:11:37;6.38;;;2.70;;
75645;SDS011;64237;52.438;13.240;2023-07-31T03:14:02;6.90;;;2.93;;
75645;SDS011;64237;52.438;13.240;2023-07-31T03:16:28;6.75;;;2.83;;
75645;SDS011;64237;52.438;13.240;2023-07-31T03:18:53;8.70;;;2.77;;
75645;SDS011;64237;52.438;13.240;2023-07-31T03:21:38;7.38;;;2.95;;
75645;SDS011;64237;52.438;13.240;2023-07-31T03:24:04;5.47;;;3.00;;
75645;SDS011;64237;52.438;13.240;2023-07-31T03:26:30;7.35;;;2.97;;
75645;SDS011;64237;52.438;13.240;2023-07-31T03:28:56;8.27;;;3.10;;
75645;SDS011;64237;52.438;13.240;2023-07-31T03:31:21;7.50;;;2.97;;
75645;SDS011;64237;52.438;13.240;2023-07-31T03:33:47;7.05;;;3.25;;
75645;SDS011;64237;52.438;13.240;2023-07-31T03:36:12;7.27;;;3.60;;
75645;SDS011;64237;52.438;13.240;2023-07-31T03:38:37;7.80;;;2.92;;
75645;SDS011;64237;52.438;13.240;2023-07-31T03:41:03;6.10;;;2.77;;
75645;SDS011;64237;52.438;13.240;2023-07-31T03:43:28;6.38;;;2.90;;
75645;SDS011;64237;52.438;13.240;2023-07-31T03:45:54;7.47;;;3.33;;
75645;SDS011;64237;52.438;13.240;2023-07-31T03:48:19;9.80;;;3.35;;
75645;SDS011;64237;52.438;13.240;2023-07-31T03:50:44;9.73;;;3.65;;
75645;SDS011;64237;52.438;13.240;2023-07-31T03:53:10;9.13;;;3.57;;
75645;SDS011;64237;52.438;13.240;2023-07-31T03:55:35;9.70;;;3.63;;
75645;SDS011;64237;52.438;13.240;2023-07-31T03:58:01;8.55;;;3.20;;
75645;SDS011;64237;52.438;13.240;2023-07-31T04:00:26;7.57;;;3.38;;
75645;SDS011;64237;52.438;13.240;2023-07-31T04:02:52;9.07;;;3.70;;
75645;SDS011;64237;52.438;13.240;2023-07-31T04:05:17;10.48;;;3.47;;
75645;SDS011;64237;52.438;13.240;2023-07-31T04:07:43;12.52;;;4.07;;
75645;SDS011;64237;52.438;13.240;2023-07-31T04:10:08;8.97;;;2.87;;
75645;SDS011;64237;52.438;13.240;2023-07-31T04:12:34;8.45;;;3.20;;
75645;SDS011;64237;52.438;13.240;2023-07-31T04:14:59;7.00;;;3.03;;
75645;SDS011;64237;52.438;13.240;2023-07-31T04:17:24;6.60;;;3.20;;
75645;SDS011;64237;52.438;13.240;2023-07-31T04:19:50;9.27;;;3.70;;
75645;SDS011;64237;52.438;13.240;2023-07-31T04:22:15;8.23;;;3.00;;
75645;SDS011;64237;52.438;13.240;2023-07-31T04:24:40;7.00;;;3.37;;
75645;SDS011;64237;52.438;13.240;2023-07-31T04:27:05;8.93;;;3.60;;
75645;SDS011;64237;52.438;13.240;2023-07-31T04:29:31;8.13;;;3.00;;
75645;SDS011;64237;52.438;13.240;2023-07-31T04:31:56;10.70;;;3.90;;
75645;SDS011;64237;52.438;13.240;2023-07-31T04:34:21;8.97;;;3.47;;
75645;SDS011;64237;52.438;13.240;2023-07-31T04:36:47;6.77;;;3.10;;
75645;SDS011;64237;52.438;13.240;2023-07-31T04:39:12;11.77;;;3.43;;
75645;SDS011;64237;52.438;13.240;2023-07-31T04:41:37;7.30;;;3.40;;
75645;SDS011;64237;52.438;13.240;2023-07-31T04:44:03;8.23;;;3.40;;
75645;SDS011;64237;52.438;13.240;2023-07-31T04:46:29;6.63;;;3.03;;
75645;SDS011;64237;52.438;13.240;2023-07-31T04:48:54;7.80;;;3.25;;
75645;SDS011;64237;52.438;13.240;2023-07-31T04:51:19;8.32;;;3.28;;
75645;SDS011;64237;52.438;13.240;2023-07-31T04:53:46;11.00;;;3.70;;
75645;SDS011;64237;52.438;13.240;2023-07-31T04:56:11;9.32;;;3.45;;
75645;SDS011;64237;52.438;13.240;2023-07-31T04:58:37;8.95;;;3.40;;
75645;SDS011;64237;52.438;13.240;2023-07-31T05:01:02;7.33;;;3.30;;
75645;SDS011;64237;52.438;13.240;2023-07-31T05:03:27;7.20;;;3.20;;
75645;SDS011;64237;52.438;13.240;2023-07-31T05:05:53;8.80;;;3.30;;
75645;SDS011;64237;52.438;13.240;2023-07-31T05:08:18;6.82;;;3.15;;
75645;SDS011;64237;52.438;13.240;2023-07-31T05:10:43;6.68;;;3.25;;
75645;SDS011;64237;52.438;13.240;2023-07-31T05:13:09;9.48;;;3.08;;
75645;SDS011;64237;52.438;13.240;2023-07-31T05:15:34;7.75;;;3.13;;
75645;SDS011;64237;52.438;13.240;2023-07-31T05:17:59;7.50;;;3.03;;
75645;SDS011;64237;52.438;13.240;2023-07-31T05:20:25;11.30;;;3.07;;
75645;SDS011;64237;52.438;13.240;2023-07-31T05:22:50;5.88;;;2.83;;
75645;SDS011;64237;52.438;13.240;2023-07-31T05:25:16;10.57;;;3.63;;
75645;SDS011;64237;52.438;13.240;2023-07-31T05:27:41;6.95;;;3.03;;
75645;SDS011;64237;52.438;13.240;2023-07-31T05:30:07;10.20;;;2.87;;
75645;SDS011;64237;52.438;13.240;2023-07-31T05:32:32;6.95;;;2.85;;
75645;SDS011;64237;52.438;13.240;2023-07-31T05:34:58;6.97;;;3.13;;
75645;SDS011;64237;52.438;13.240;2023-07-31T05:37:23;6.05;;;2.22;;
75645;SDS011;64237;52.438;13.240;2023-07-31T05:39:49;4.55;;;2.10;;
75645;SDS011;64237;52.438;13.240;2023-07-31T05:42:14;5.28;;;2.10;;
75645;SDS011;64237;52.438;13.240;2023-07-31T05:44:40;5.80;;;2.13;;
75645;SDS011;64237;52.438;13.240;2023-07-31T05:47:05;5.50;;;2.10;;
75645;SDS011;64237;52.438;13.240;2023-07-31T05:49:30;6.25;;;2.10;;
75645;SDS011;64237;52.438;13.240;2023-07-31T05:51:56;5.13;;;1.87;;
75645;SDS011;64237;52.438;13.240;2023-07-31T05:54:21;7.03;;;2.15;;
75645;SDS011;64237;52.438;13.240;2023-07-31T05:56:47;6.20;;;1.92;;
75645;SDS011;64237;52.438;13.240;2023-07-31T05:59:12;5.97;;;1.90;;
75645;SDS011;64237;52.438;13.240;2023-07-31T06:01:41;8.77;;;2.25;;
75645;SDS011;64237;52.438;13.240;2023-07-31T06:04:07;7.90;;;2.60;;
75645;SDS011;64237;52.438;13.240;2023-07-31T06:06:32;9.40;;;2.50;;
75645;SDS011;64237;52.438;13.240;2023-07-31T06:08:57;5.77;;;2.10;;
75645;SDS011;64237;52.438;13.240;2023-07-31T06:11:23;7.00;;;2.30;;
75645;SDS011;64237;52.438;13.240;2023-07-31T06:13:48;7.05;;;2.40;;
75645;SDS011;64237;52.438;13.240;2023-07-31T06:16:15;8.60;;;2.22;;
75645;SDS011;64237;52.438;13.240;2023-07-31T06:18:41;6.25;;;2.25;;
75645;SDS011;64237;52.438;13.240;2023-07-31T06:21:06;5.78;;;2.20;;
75645;SDS011;64237;52.438;13.240;2023-07-31T06:23:32;5.72;;;2.17;;
75645;SDS011;64237;52.438;13.240;2023-07-31T06:25:57;7.38;;;2.20;;
75645;SDS011;64237;52.438;13.240;2023-07-31T06:28:29;7.80;;;2.20;;
75645;SDS011;64237;52.438;13.240;2023-07-31T06:30:55;10.73;;;2.28;;
75645;SDS011;64237;52.438;13.240;2023-07-31T06:33:21;7.43;;;2.28;;
75645;SDS011;64237;52.438;13.240;2023-07-31T06:35:46;5.03;;;2.20;;
75645;SDS011;64237;52.438;13.240;2023-07-31T06:38:11;4.68;;;1.90;;
75645;SDS011;64237;52.438;13.240;2023-07-31T06:40:36;6.67;;;2.00;;
75645;SDS011;64237;52.438;13.240;2023-07-31T06:43:02;5.93;;;1.98;;
75645;SDS011;64237;52.438;13.240;2023-07-31T06:45:33;6.63;;;2.25;;
75645;SDS011;64237;52.438;13.240;2023-07-31T06:47:59;7.18;;;1.70;;
75645;SDS011;64237;52.438;13.240;2023-07-31T06:50:26;6.05;;;2.10;;
75645;SDS011;64237;52.438;13.240;2023-07-31T06:52:52;6.03;;;2.03;;
75645;SDS011;64237;52.438;13.240;2023-07-31T06:55:20;6.67;;;1.90;;
75645;SDS011;64237;52.438;13.240;2023-07-31T06:57:47;5.47;;;1.88;;
75645;SDS011;64237;52.438;13.240;2023-07-31T07:00:13;7.60;;;2.35;;
75645;SDS011;64237;52.438;13.240;2023-07-31T07:02:39;6.40;;;2.00;;
75645;SDS011;64237;52.438;13.240;2023-07-31T07:05:05;7.20;;;2.08;;
75645;SDS011;64237;52.438;13.240;2023-07-31T07:07:32;8.52;;;2.10;;
75645;SDS011;64237;52.438;13.240;2023-07-31T07:09:57;8.27;;;2.10;;
75645;SDS011;64237;52.438;13.240;2023-07-31T07:12:24;6.13;;;2.00;;
75645;SDS011;64237;52.438;13.240;2023-07-31T07:14:50;5.63;;;1.90;;
75645;SDS011;64237;52.438;13.240;2023-07-31T07:17:15;5.65;;;1.85;;
75645;SDS011;64237;52.438;13.240;2023-07-31T07:19:40;5.40;;;1.98;;
75645;SDS011;64237;52.438;13.240;2023-07-31T07:22:07;5.20;;;1.95;;
75645;SDS011;64237;52.438;13.240;2023-07-31T07:24:32;9.07;;;2.40;;
75645;SDS011;64237;52.438;13.240;2023-07-31T07:26:57;8.17;;;2.30;;
75645;SDS011;64237;52.438;13.240;2023-07-31T07:29:23;4.70;;;1.67;;
75645;SDS011;64237;52.438;13.240;2023-07-31T07:31:48;6.77;;;1.90;;
75645;SDS011;64237;52.438;13.240;2023-07-31T07:34:13;6.38;;;2.05;;
75645;SDS011;64237;52.438;13.240;2023-07-31T07:36:39;5.07;;;1.95;;
75645;SDS011;64237;52.438;13.240;2023-07-31T07:39:04;7.18;;;2.22;;
75645;SDS011;64237;52.438;13.240;2023-07-31T07:41:30;4.50;;;2.10;;
75645;SDS011;64237;52.438;13.240;2023-07-31T07:43:55;4.55;;;1.60;;
75645;SDS011;64237;52.438;13.240;2023-07-31T07:46:20;3.83;;;1.83;;
75645;SDS011;64237;52.438;13.240;2023-07-31T07:48:46;7.82;;;2.20;;
75645;SDS011;64237;52.438;13.240;2023-07-31T07:51:11;3.97;;;1.90;;
75645;SDS011;64237;52.438;13.240;2023-07-31T07:53:36;6.83;;;1.97;;
75645;SDS011;64237;52.438;13.240;2023-07-31T07:56:02;4.50;;;2.00;;
75645;SDS011;64237;52.438;13.240;2023-07-31T07:58:27;4.97;;;1.80;;
75645;SDS011;64237;52.438;13.240;2023-07-31T08:00:52;5.80;;;1.70;;
75645;SDS011;64237;52.438;13.240;2023-07-31T08:03:18;4.35;;;2.10;;
75645;SDS011;64237;52.438;13.240;2023-07-31T08:05:43;4.20;;;1.95;;
75645;SDS011;64237;52.438;13.240;2023-07-31T08:08:13;4.63;;;2.20;;
75645;SDS011;64237;52.438;13.240;2023-07-31T08:10:41;5.30;;;1.90;;
75645;SDS011;64237;52.438;13.240;2023-07-31T08:13:06;5.00;;;2.10;;
75645;SDS011;64237;52.438;13.240;2023-07-31T08:15:32;6.50;;;2.47;;
75645;SDS011;64237;52.438;13.240;2023-07-31T08:17:57;8.47;;;1.73;;
75645;SDS011;64237;52.438;13.240;2023-07-31T08:20:22;4.73;;;2.07;;
75645;SDS011;64237;52.438;13.240;2023-07-31T08:22:47;6.17;;;1.90;;
75645;SDS011;64237;52.438;13.240;2023-07-31T08:25:13;6.17;;;2.00;;
75645;SDS011;64237;52.438;13.240;2023-07-31T08:27:38;5.85;;;2.00;;
75645;SDS011;64237;52.438;13.240;2023-07-31T08:30:03;5.40;;;2.03;;
75645;SDS011;64237;52.438;13.240;2023-07-31T08:32:29;4.63;;;2.10;;
75645;SDS011;64237;52.438;13.240;2023-07-31T08:34:55;4.83;;;2.20;;
75645;SDS011;64237;52.438;13.240;2023-07-31T08:37:20;5.72;;;1.88;;
75645;SDS011;64237;52.438;13.240;2023-07-31T08:39:45;8.00;;;2.13;;
75645;SDS011;64237;52.438;13.240;2023-07-31T08:42:10;4.70;;;1.83;;
75645;SDS011;64237;52.438;13.240;2023-07-31T08:44:37;4.65;;;1.90;;
75645;SDS011;64237;52.438;13.240;2023-07-31T08:47:03;6.07;;;2.08;;
75645;SDS011;64237;52.438;13.240;2023-07-31T08:49:29;5.07;;;1.80;;
75645;SDS011;64237;52.438;13.240;2023-07-31T08:51:55;5.47;;;1.80;;
75645;SDS011;64237;52.438;13.240;2023-07-31T08:54:22;4.28;;;1.63;;
75645;SDS011;64237;52.438;13.240;2023-07-31T08:56:48;4.30;;;1.73;;
75645;SDS011;64237;52.438;13.240;2023-07-31T08:59:14;2.40;;;1.23;;
75645;SDS011;64237;52.438;13.240;2023-07-31T09:01:43;1.80;;;1.00;;
75645;SDS011;64237;52.438;13.240;2023-07-31T09:04:14;1.90;;;1.00;;
75645;SDS011;64237;52.438;13.240;2023-07-31T09:06:41;4.20;;;1.20;;
75645;SDS011;64237;52.438;13.240;2023-07-31T09:09:08;2.67;;;1.33;;
75645;SDS011;64237;52.438;13.240;2023-07-31T09:11:34;4.60;;;1.38;;
75645;SDS011;64237;52.438;13.240;2023-07-31T09:14:00;2.13;;;1.02;;
75645;SDS011;64237;52.438;13.240;2023-07-31T09:16:28;2.42;;;1.20;;
75645;SDS011;64237;52.438;13.240;2023-07-31T09:18:57;2.10;;;0.80;;
75645;SDS011;64237;52.438;13.240;2023-07-31T09:21:23;2.28;;;1.10;;
75645;SDS011;64237;52.438;13.240;2023-07-31T09:23:50;2.50;;;1.05;;
75645;SDS011;64237;52.438;13.240;2023-07-31T09:28:57;1.30;;;0.90;;
75645;SDS011;64237;52.438;13.240;2023-07-31T09:31:39;1.77;;;1.10;;
75645;SDS011;64237;52.438;13.240;2023-07-31T09:34:06;2.70;;;1.00;;
75645;SDS011;64237;52.438;13.240;2023-07-31T09:36:32;1.45;;;1.00;;
75645;SDS011;64237;52.438;13.240;2023-07-31T09:39:01;2.05;;;0.80;;
75645;SDS011;64237;52.438;13.240;2023-07-31T09:41:28;1.50;;;1.10;;
75645;SDS011;64237;52.438;13.240;2023-07-31T09:43:53;2.17;;;0.90;;
75645;SDS011;64237;52.438;13.240;2023-07-31T09:46:20;4.90;;;1.40;;
75645;SDS011;64237;52.438;13.240;2023-07-31T09:48:46;2.22;;;0.98;;
75645;SDS011;64237;52.438;13.240;2023-07-31T09:51:12;2.65;;;1.30;;
75645;SDS011;64237;52.438;13.240;2023-07-31T09:53:37;2.60;;;1.42;;
75645;SDS011;64237;52.438;13.240;2023-07-31T09:56:03;4.95;;;1.80;;
75645;SDS011;64237;52.438;13.240;2023-07-31T09:58:29;3.45;;;1.70;;
75645;SDS011;64237;52.438;13.240;2023-07-31T10:00:55;3.72;;;1.60;;
75645;SDS011;64237;52.438;13.240;2023-07-31T10:03:22;6.28;;;1.98;;
75645;SDS011;64237;52.438;13.240;2023-07-31T10:05:49;4.57;;;2.08;;
75645;SDS011;64237;52.438;13.240;2023-07-31T10:08:16;3.70;;;1.98;;
75645;SDS011;64237;52.438;13.240;2023-07-31T10:10:45;5.13;;;2.28;;
75645;SDS011;64237;52.438;13.240;2023-07-31T10:13:11;5.38;;;2.10;;
75645;SDS011;64237;52.438;13.240;2023-07-31T10:15:37;8.77;;;2.47;;
75645;SDS011;64237;52.438;13.240;2023-07-31T10:18:03;7.05;;;2.38;;
75645;SDS011;64237;52.438;13.240;2023-07-31T10:20:31;7.15;;;2.42;;
75645;SDS011;64237;52.438;13.240;2023-07-31T10:22:56;7.60;;;2.40;;
75645;SDS011;64237;52.438;13.240;2023-07-31T10:25:22;6.65;;;2.28;;
75645;SDS011;64237;52.438;13.240;2023-07-31T10:27:48;8.20;;;2.80;;
75645;SDS011;64237;52.438;13.240;2023-07-31T10:30:15;5.20;;;2.50;;
75645;SDS011;64237;52.438;13.240;2023-07-31T10:32:42;5.22;;;2.20;;
75645;SDS011;64237;52.438;13.240;2023-07-31T10:35:09;7.28;;;3.03;;
75645;SDS011;64237;52.438;13.240;2023-07-31T10:37:39;6.25;;;2.22;;
75645;SDS011;64237;52.438;13.240;2023-07-31T10:40:09;9.02;;;2.30;;
75645;SDS011;64237;52.438;13.240;2023-07-31T10:42:37;7.65;;;2.78;;
75645;SDS011;64237;52.438;13.240;2023-07-31T10:45:24;6.43;;;2.13;;
75645;SDS011;64237;52.438;13.240;2023-07-31T10:48:13;8.48;;;2.25;;
75645;SDS011;64237;52.438;13.240;2023-07-31T10:50:50;6.85;;;2.13;;
75645;SDS011;64237;52.438;13.240;2023-07-31T10:53:26;6.05;;;2.10;;
75645;SDS011;64237;52.438;13.240;2023-07-31T10:55:57;5.82;;;2.03;;
75645;SDS011;64237;52.438;13.240;2023-07-31T10:58:24;7.07;;;2.03;;
75645;SDS011;64237;52.438;13.240;2023-07-31T11:00:49;6.63;;;2.25;;
75645;SDS011;64237;52.438;13.240;2023-07-31T11:03:15;5.93;;;2.20;;
75645;SDS011;64237;52.438;13.240;2023-07-31T11:15:59;5.47;;;2.17;;
75645;SDS011;64237;52.438;13.240;2023-07-31T11:18:28;5.80;;;2.22;;
75645;SDS011;64237;52.438;13.240;2023-07-31T11:23:19;4.85;;;1.90;;
75645;SDS011;64237;52.438;13.240;2023-07-31T11:25:46;6.20;;;2.40;;
75645;SDS011;64237;52.438;13.240;2023-07-31T11:28:13;6.88;;;1.92;;
75645;SDS011;64237;52.438;13.240;2023-07-31T11:30:40;6.03;;;2.00;;
75645;SDS011;64237;52.438;13.240;2023-07-31T11:33:07;9.15;;;1.98;;
75645;SDS011;64237;52.438;13.240;2023-07-31T11:35:34;5.53;;;1.92;;
75645;SDS011;64237;52.438;13.240;2023-07-31T11:38:01;7.15;;;2.40;;
75645;SDS011;64237;52.438;13.240;2023-07-31T11:40:27;5.55;;;2.17;;
75645;SDS011;64237;52.438;13.240;2023-07-31T11:42:57;5.10;;;2.08;;
75645;SDS011;64237;52.438;13.240;2023-07-31T11:45:26;6.75;;;2.00;;
75645;SDS011;64237;52.438;13.240;2023-07-31T11:47:55;6.65;;;2.30;;
75645;SDS011;64237;52.438;13.240;2023-07-31T11:50:21;6.18;;;2.30;;
75645;SDS011;64237;52.438;13.240;2023-07-31T11:52:50;4.35;;;1.77;;
75645;SDS011;64237;52.438;13.240;2023-07-31T11:55:19;5.93;;;1.85;;
75645;SDS011;64237;52.438;13.240;2023-07-31T11:57:45;6.63;;;1.80;;
75645;SDS011;64237;52.438;13.240;2023-07-31T12:00:11;5.65;;;1.92;;
75645;SDS011;64237;52.438;13.240;2023-07-31T12:02:39;4.93;;;1.90;;
75645;SDS011;64237;52.438;13.240;2023-07-31T12:05:05;6.75;;;1.92;;
75645;SDS011;64237;52.438;13.240;2023-07-31T12:10:10;6.60;;;1.98;;
75645;SDS011;64237;52.438;13.240;2023-07-31T12:12:35;3.72;;;1.50;;
75645;SDS011;64237;52.438;13.240;2023-07-31T12:15:01;8.23;;;1.90;;
75645;SDS011;64237;52.438;13.240;2023-07-31T12:17:26;7.95;;;2.10;;
75645;SDS011;64237;52.438;13.240;2023-07-31T12:19:52;6.60;;;2.00;;
75645;SDS011;64237;52.438;13.240;2023-07-31T12:22:17;6.60;;;1.80;;
75645;SDS011;64237;52.438;13.240;2023-07-31T12:24:43;7.13;;;2.10;;
75645;SDS011;64237;52.438;13.240;2023-07-31T12:27:13;4.47;;;1.60;;
75645;SDS011;64237;52.438;13.240;2023-07-31T12:29:40;4.97;;;1.83;;
75645;SDS011;64237;52.438;13.240;2023-07-31T12:32:23;5.00;;;1.70;;
75645;SDS011;64237;52.438;13.240;2023-07-31T12:34:50;5.35;;;1.83;;
75645;SDS011;64237;52.438;13.240;2023-07-31T12:37:15;5.18;;;1.90;;
75645;SDS011;64237;52.438;13.240;2023-07-31T12:39:41;4.50;;;1.73;;
75645;SDS011;64237;52.438;13.240;2023-07-31T12:42:06;3.65;;;1.55;;
75645;SDS011;64237;52.438;13.240;2023-07-31T12:44:32;5.87;;;1.63;;
75645;SDS011;64237;52.438;13.240;2023-07-31T12:46:57;9.70;;;1.70;;
75645;SDS011;64237;52.438;13.240;2023-07-31T12:49:22;5.47;;;1.60;;
75645;SDS011;64237;52.438;13.240;2023-07-31T12:51:48;5.28;;;1.50;;
75645;SDS011;64237;52.438;13.240;2023-07-31T12:54:13;3.13;;;1.38;;
75645;SDS011;64237;52.438;13.240;2023-07-31T12:56:39;6.15;;;1.50;;
75645;SDS011;64237;52.438;13.240;2023-07-31T12:59:05;2.50;;;1.50;;
75645;SDS011;64237;52.438;13.240;2023-07-31T13:01:31;4.47;;;1.38;;
75645;SDS011;64237;52.438;13.240;2023-07-31T13:03:56;5.18;;;1.60;;
75645;SDS011;64237;52.438;13.240;2023-07-31T13:06:22;3.38;;;1.52;;
75645;SDS011;64237;52.438;13.240;2023-07-31T13:08:47;4.32;;;1.60;;
75645;SDS011;64237;52.438;13.240;2023-07-31T13:11:13;5.30;;;1.83;;
75645;SDS011;64237;52.438;13.240;2023-07-31T13:13:38;4.13;;;1.30;;
75645;SDS011;64237;52.438;13.240;2023-07-31T13:16:03;6.33;;;2.07;;
75645;SDS011;64237;52.438;13.240;2023-07-31T13:18:29;4.05;;;1.50;;
75645;SDS011;64237;52.438;13.240;2023-07-31T13:20:54;5.53;;;1.80;;
75645;SDS011;64237;52.438;13.240;2023-07-31T13:23:20;3.90;;;1.45;;
75645;SDS011;64237;52.438;13.240;2023-07-31T13:25:45;5.53;;;1.90;;
75645;SDS011;64237;52.438;13.240;2023-07-31T13:28:10;4.93;;;1.63;;
75645;SDS011;64237;52.438;13.240;2023-07-31T13:30:36;4.60;;;1.77;;
75645;SDS011;64237;52.438;13.240;2023-07-31T13:33:01;3.60;;;1.35;;
75645;SDS011;64237;52.438;13.240;2023-07-31T13:35:27;5.95;;;2.05;;
75645;SDS011;64237;52.438;13.240;2023-07-31T13:37:53;5.82;;;1.90;;
75645;SDS011;64237;52.438;13.240;2023-07-31T13:40:18;6.82;;;1.73;;
75645;SDS011;64237;52.438;13.240;2023-07-31T13:42:43;4.78;;;2.15;;
75645;SDS011;64237;52.438;13.240;2023-07-31T13:45:09;5.67;;;1.60;;
75645;SDS011;64237;52.438;13.240;2023-07-31T13:47:34;4.82;;;1.90;;
75645;SDS011;64237;52.438;13.240;2023-07-31T13:50:02;6.60;;;2.08;;
75645;SDS011;64237;52.438;13.240;2023-07-31T13:52:27;3.75;;;1.70;;
75645;SDS011;64237;52.438;13.240;2023-07-31T13:54:52;4.97;;;1.80;;
75645;SDS011;64237;52.438;13.240;2023-07-31T13:57:18;6.33;;;1.80;;
75645;SDS011;64237;52.438;13.240;2023-07-31T13:59:43;2.85;;;1.50;;
75645;SDS011;64237;52.438;13.240;2023-07-31T14:02:08;6.27;;;1.70;;
75645;SDS011;64237;52.438;13.240;2023-07-31T14:04:34;5.10;;;1.70;;
75645;SDS011;64237;52.438;13.240;2023-07-31T14:06:59;4.93;;;2.10;;
75645;SDS011;64237;52.438;13.240;2023-07-31T14:09:24;7.72;;;1.90;;
75645;SDS011;64237;52.438;13.240;2023-07-31T14:11:50;4.05;;;1.67;;
75645;SDS011;64237;52.438;13.240;2023-07-31T14:14:15;3.80;;;1.60;;
75645;SDS011;64237;52.438;13.240;2023-07-31T14:16:42;6.30;;;2.03;;
75645;SDS011;64237;52.438;13.240;2023-07-31T14:19:08;5.27;;;1.73;;
75645;SDS011;64237;52.438;13.240;2023-07-31T14:21:33;5.40;;;2.00;;
75645;SDS011;64237;52.438;13.240;2023-07-31T14:23:59;7.20;;;1.80;;
75645;SDS011;64237;52.438;13.240;2023-07-31T14:26:24;6.63;;;1.90;;
75645;SDS011;64237;52.438;13.240;2023-07-31T14:28:49;5.88;;;2.00;;
75645;SDS011;64237;52.438;13.240;2023-07-31T14:31:15;6.50;;;2.10;;
75645;SDS011;64237;52.438;13.240;2023-07-31T14:33:40;6.13;;;1.92;;
75645;SDS011;64237;52.438;13.240;2023-07-31T14:36:06;6.25;;;2.22;;
75645;SDS011;64237;52.438;13.240;2023-07-31T14:38:31;4.10;;;1.70;;
75645;SDS011;64237;52.438;13.240;2023-07-31T14:40:57;4.10;;;1.70;;
75645;SDS011;64237;52.438;13.240;2023-07-31T14:43:22;4.70;;;1.67;;
75645;SDS011;64237;52.438;13.240;2023-07-31T14:45:48;5.88;;;1.77;;
75645;SDS011;64237;52.438;13.240;2023-07-31T14:48:14;8.88;;;2.05;;
75645;SDS011;64237;52.438;13.240;2023-07-31T14:50:39;6.75;;;1.70;;
75645;SDS011;64237;52.438;13.240;2023-07-31T14:53:05;4.53;;;1.92;;